Time;durP1;ratioP1;P1;durP2;ratioP2;P2;SDS_P1;SDS_P2;PMS_P1;PMS_P2;Temp;Humidity;BMP_temperature;BMP_pressure;BME280_temperature;BME280_humidity;BME280_pressure;Samples;Min_cycle;Max_cycle;Signal;HPM_P1;HPM_P2
2022/07/08 00:00:40;;;;;;;6.55;0.55;;;15.30;99.90;;;;;;4985233;28;20026;-75
2022/07/08 00:03:06;;;;;;;4.68;0.55;;;15.30;99.90;;;;;;4985173;28;20570;-75
2022/07/08 00:05:31;;;;;;;6.85;0.90;;;15.30;99.90;;;;;;4985828;28;20363;-75
2022/07/08 00:07:57;;;;;;;7.55;0.50;;;15.30;99.90;;;;;;4983820;28;20026;-74
2022/07/08 00:10:23;;;;;;;3.67;0.40;;;15.30;99.90;;;;;;4985129;28;20486;-75
2022/07/08 00:12:49;;;;;;;5.28;0.50;;;15.20;99.90;;;;;;4985050;28;20048;-75
2022/07/08 00:15:14;;;;;;;7.18;0.50;;;15.30;99.90;;;;;;4984449;28;20114;-75
2022/07/08 00:17:40;;;;;;;3.63;0.40;;;15.20;99.90;;;;;;4984824;28;20030;-74
2022/07/08 00:20:06;;;;;;;4.80;0.40;;;15.20;99.90;;;;;;4985008;28;20030;-74
2022/07/08 00:22:33;;;;;;;5.80;0.55;;;15.20;99.90;;;;;;4986386;28;20050;-75
2022/07/08 00:24:59;;;;;;;5.93;0.60;;;15.20;99.90;;;;;;4985453;28;20034;-75
2022/07/08 00:27:24;;;;;;;3.72;0.40;;;15.20;99.90;;;;;;4983859;28;20030;-75
2022/07/08 00:29:50;;;;;;;4.93;0.60;;;15.20;99.90;;;;;;4984233;28;20109;-74
2022/07/08 00:32:16;;;;;;;7.15;0.70;;;15.20;99.90;;;;;;4983904;28;20046;-75
2022/07/08 00:34:41;;;;;;;3.20;0.30;;;15.20;99.90;;;;;;4985382;28;20026;-74
2022/07/08 00:37:07;;;;;;;7.60;0.32;;;15.10;99.90;;;;;;4983608;28;20122;-74
2022/07/08 00:39:33;;;;;;;6.65;0.50;;;15.10;99.90;;;;;;4986677;28;20099;-75
2022/07/08 00:41:59;;;;;;;6.32;0.70;;;15.10;99.90;;;;;;4987810;28;20513;-74
2022/07/08 00:44:25;;;;;;;3.45;0.30;;;15.00;99.90;;;;;;4987971;28;20030;-75
2022/07/08 00:46:50;;;;;;;6.72;0.40;;;15.00;99.90;;;;;;4988287;28;20509;-75
2022/07/08 00:49:16;;;;;;;6.38;0.50;;;15.00;99.90;;;;;;4985724;28;20042;-75
2022/07/08 00:51:42;;;;;;;30.45;1.90;;;15.00;99.90;;;;;;4988769;28;20041;-74
2022/07/08 00:54:11;;;;;;;5.22;0.57;;;14.90;99.90;;;;;;4988061;28;20801;-75
2022/07/08 00:56:37;;;;;;;7.47;0.98;;;14.80;99.90;;;;;;4987903;28;20026;-74
2022/07/08 00:59:04;;;;;;;4.55;0.40;;;14.80;99.90;;;;;;4988966;28;20035;-75
2022/07/08 01:01:29;;;;;;;6.40;0.40;;;14.60;99.90;;;;;;4988054;28;20069;-75
2022/07/08 01:03:55;;;;;;;5.03;0.50;;;14.50;99.90;;;;;;4988444;28;20050;-75
2022/07/08 01:06:20;;;;;;;3.92;0.70;;;14.50;99.90;;;;;;4984984;28;20077;-75
2022/07/08 01:08:46;;;;;;;4.95;0.32;;;14.40;99.90;;;;;;4987803;28;20026;-75
2022/07/08 01:11:12;;;;;;;4.70;0.30;;;14.30;99.90;;;;;;4987941;28;20157;-75
2022/07/08 01:13:38;;;;;;;5.07;0.52;;;14.30;99.90;;;;;;4987397;28;20040;-75
2022/07/08 01:16:04;;;;;;;4.35;0.50;;;14.20;99.90;;;;;;4989178;28;20022;-75
2022/07/08 01:18:31;;;;;;;4.05;0.60;;;14.10;99.90;;;;;;4988379;28;20485;-74
2022/07/08 01:20:57;;;;;;;6.40;0.50;;;14.00;99.90;;;;;;4988748;28;20394;-75
2022/07/08 01:23:23;;;;;;;5.30;0.50;;;13.90;99.90;;;;;;4987458;28;20100;-75
2022/07/08 01:25:50;;;;;;;6.60;0.50;;;13.80;99.90;;;;;;4988492;28;20034;-74
2022/07/08 01:28:15;;;;;;;5.68;0.50;;;13.80;99.90;;;;;;4985253;28;20478;-75
2022/07/08 01:30:41;;;;;;;8.13;0.50;;;13.70;99.90;;;;;;4988048;28;20041;-75
2022/07/08 01:33:07;;;;;;;6.15;1.00;;;13.60;99.90;;;;;;4985613;28;20144;-75
2022/07/08 01:35:33;;;;;;;5.80;0.40;;;13.60;99.90;;;;;;4987980;28;20038;-74
2022/07/08 01:37:58;;;;;;;6.68;0.50;;;13.50;99.90;;;;;;4985925;28;20391;-74
2022/07/08 01:40:24;;;;;;;4.97;0.45;;;13.50;99.90;;;;;;4988857;28;20109;-74
2022/07/08 01:42:49;;;;;;;7.63;0.40;;;13.40;99.90;;;;;;4987091;28;20030;-75
2022/07/08 01:45:15;;;;;;;6.05;0.40;;;13.30;99.90;;;;;;4986973;28;20026;-75
2022/07/08 01:47:41;;;;;;;8.30;1.23;;;13.30;99.90;;;;;;4985311;28;20023;-75
2022/07/08 01:50:07;;;;;;;7.97;1.30;;;13.20;99.90;;;;;;4986682;28;20023;-75
2022/07/08 01:52:32;;;;;;;7.00;0.47;;;13.10;99.90;;;;;;4986216;28;20042;-75
2022/07/08 01:54:58;;;;;;;6.45;0.75;;;13.00;99.90;;;;;;4987804;28;20383;-75
2022/07/08 01:57:23;;;;;;;4.55;0.57;;;12.90;99.90;;;;;;4987399;28;20030;-75
2022/07/08 01:59:50;;;;;;;6.25;0.50;;;12.80;99.90;;;;;;4987063;28;20033;-75
2022/07/08 02:02:21;;;;;;;5.50;0.45;;;12.80;99.90;;;;;;4986905;28;20026;-75
2022/07/08 02:04:46;;;;;;;3.65;0.50;;;12.70;99.90;;;;;;4987080;28;20157;-74
2022/07/08 02:07:13;;;;;;;6.45;2.05;;;12.60;99.90;;;;;;4986042;28;20599;-75
2022/07/08 02:09:39;;;;;;;5.93;0.50;;;12.60;99.90;;;;;;4986981;28;20069;-74
2022/07/08 02:12:20;;;;;;;5.75;0.50;;;12.60;99.90;;;;;;4987017;28;20085;-75
2022/07/08 02:14:51;;;;;;;4.38;0.50;;;12.50;99.90;;;;;;4984893;28;20023;-74
2022/07/08 02:17:18;;;;;;;4.22;0.55;;;12.60;99.90;;;;;;4987105;28;20420;-75
2022/07/08 02:19:44;;;;;;;6.10;0.63;;;12.60;99.90;;;;;;4984361;28;20515;-75
2022/07/08 02:22:10;;;;;;;6.15;0.50;;;12.70;99.90;;;;;;4986343;28;20065;-74
2022/07/08 02:24:36;;;;;;;4.53;0.80;;;12.70;99.90;;;;;;4986872;28;20479;-75
2022/07/08 02:27:03;;;;;;;7.97;0.50;;;12.80;99.90;;;;;;4987832;28;20027;-75
2022/07/08 02:29:28;;;;;;;3.35;0.60;;;12.80;99.90;;;;;;4985784;28;20631;-75
2022/07/08 02:31:54;;;;;;;5.38;1.05;;;12.80;99.90;;;;;;4984739;28;20069;-75
2022/07/08 02:34:19;;;;;;;3.88;0.50;;;12.90;99.90;;;;;;4983752;28;20074;-75
2022/07/08 02:36:45;;;;;;;9.48;0.88;;;12.90;99.90;;;;;;4987129;28;20097;-75
2022/07/08 02:39:12;;;;;;;4.40;0.50;;;12.90;99.90;;;;;;4986911;28;20492;-75
2022/07/08 02:41:38;;;;;;;10.32;1.15;;;12.90;99.90;;;;;;4986711;28;20037;-74
2022/07/08 02:44:05;;;;;;;7.13;0.90;;;12.90;99.90;;;;;;4982383;28;20035;-75
2022/07/08 02:46:30;;;;;;;6.68;0.75;;;13.00;99.90;;;;;;4988027;28;20023;-75
2022/07/08 02:48:57;;;;;;;6.38;0.60;;;13.00;99.90;;;;;;4986345;28;20026;-75
2022/07/08 02:51:22;;;;;;;5.47;1.15;;;13.00;99.90;;;;;;4983318;28;20518;-75
2022/07/08 02:53:48;;;;;;;8.57;1.20;;;13.00;99.90;;;;;;4984861;28;20026;-75
2022/07/08 02:56:13;;;;;;;7.75;0.98;;;13.00;99.90;;;;;;4986144;28;20035;-75
2022/07/08 02:58:39;;;;;;;8.70;0.90;;;13.10;99.90;;;;;;4986154;28;20034;-74
2022/07/08 03:01:04;;;;;;;4.10;0.77;;;13.00;99.90;;;;;;4985953;28;20063;-75
2022/07/08 03:03:30;;;;;;;7.97;1.02;;;13.00;99.90;;;;;;4985652;28;20037;-75
2022/07/08 03:05:55;;;;;;;6.68;0.90;;;13.00;99.90;;;;;;4986046;28;20065;-74
2022/07/08 03:08:22;;;;;;;6.30;0.57;;;13.10;99.90;;;;;;4986004;28;20496;-74
2022/07/08 03:10:49;;;;;;;5.55;0.70;;;13.10;99.90;;;;;;4983668;28;20030;-75
2022/07/08 03:13:14;;;;;;;5.53;0.65;;;13.10;99.90;;;;;;4985710;28;20045;-74
2022/07/08 03:15:40;;;;;;;6.93;0.70;;;13.10;99.90;;;;;;4983683;28;20026;-75
2022/07/08 03:18:06;;;;;;;7.05;1.15;;;13.00;99.90;;;;;;4980951;28;20438;-74
2022/07/08 03:20:31;;;;;;;8.73;1.15;;;13.00;99.90;;;;;;4985454;28;20030;-74
2022/07/08 03:22:57;;;;;;;9.50;0.90;;;13.00;99.90;;;;;;4986162;28;20041;-74
2022/07/08 03:25:22;;;;;;;7.25;0.70;;;12.90;99.90;;;;;;4983809;28;20042;-75
2022/07/08 03:27:48;;;;;;;5.93;0.70;;;12.80;99.90;;;;;;4983789;28;20030;-74
2022/07/08 03:30:14;;;;;;;9.73;1.20;;;12.80;99.90;;;;;;4981582;28;20487;-74
2022/07/08 03:32:40;;;;;;;5.40;0.88;;;12.70;99.90;;;;;;4983606;28;20054;-75
2022/07/08 03:35:06;;;;;;;5.75;0.70;;;12.70;99.90;;;;;;4985119;28;20434;-75
2022/07/08 03:37:31;;;;;;;5.32;0.70;;;12.60;99.90;;;;;;4987436;28;20044;-75
2022/07/08 03:41:19;;;;;;;7.45;1.30;;;12.50;99.90;;;;;;4985560;28;20026;-74
2022/07/08 03:42:42;;;;;;;7.32;1.50;;;12.50;99.90;;;;;;4983352;28;20030;-76
2022/07/08 03:45:08;;;;;;;7.78;0.73;;;12.40;99.90;;;;;;4981740;28;20085;-75
2022/07/08 03:47:34;;;;;;;6.28;0.73;;;12.40;99.90;;;;;;4985465;28;20516;-75
2022/07/08 03:50:00;;;;;;;5.05;0.88;;;12.40;99.90;;;;;;4984825;28;20113;-75
2022/07/08 03:52:25;;;;;;;4.28;0.80;;;12.40;99.90;;;;;;5000924;28;20125;-75
2022/07/08 03:54:51;;;;;;;7.07;1.05;;;12.40;99.90;;;;;;4986552;28;20050;-75
2022/07/08 03:57:17;;;;;;;6.55;0.73;;;12.30;99.90;;;;;;4984535;28;20117;-75
2022/07/08 03:59:42;;;;;;;10.82;1.48;;;12.40;99.90;;;;;;4986394;28;20026;-75
2022/07/08 04:02:08;;;;;;;9.40;1.05;;;12.30;99.90;;;;;;4984013;28;20027;-75
2022/07/08 04:04:34;;;;;;;7.75;0.95;;;12.40;99.90;;;;;;4986031;28;20117;-75
2022/07/08 04:06:59;;;;;;;8.57;1.23;;;12.40;99.90;;;;;;4986263;28;20493;-75
2022/07/08 04:09:25;;;;;;;7.65;1.30;;;12.40;99.90;;;;;;4984477;28;20501;-75
2022/07/08 04:11:50;;;;;;;9.20;1.20;;;12.50;99.90;;;;;;4982378;28;20038;-75
2022/07/08 04:14:16;;;;;;;7.38;1.23;;;12.50;99.90;;;;;;4983613;28;20042;-75
2022/07/08 04:16:41;;;;;;;6.97;1.10;;;12.60;99.90;;;;;;4986299;28;20042;-75
2022/07/08 04:19:07;;;;;;;9.38;1.63;;;12.60;99.90;;;;;;4991351;28;20040;-75
2022/07/08 04:21:32;;;;;;;10.13;1.45;;;12.60;99.90;;;;;;4989949;28;20030;-75
2022/07/08 04:23:59;;;;;;;9.18;1.30;;;12.70;99.90;;;;;;4988863;28;20034;-75
2022/07/08 04:26:31;;;;;;;8.45;1.73;;;12.70;99.90;;;;;;4988172;28;20034;-75
2022/07/08 04:28:57;;;;;;;9.73;1.38;;;12.80;99.90;;;;;;4988991;28;20032;-74
2022/07/08 04:31:22;;;;;;;16.55;3.00;;;12.80;99.90;;;;;;4988217;28;20041;-75
2022/07/08 04:33:48;;;;;;;12.23;1.83;;;12.80;99.90;;;;;;4988812;28;20081;-75
2022/07/08 04:36:14;;;;;;;10.52;1.55;;;12.80;99.90;;;;;;4986269;28;20038;-75
2022/07/08 04:38:39;;;;;;;9.75;1.63;;;12.90;99.90;;;;;;4986744;28;20069;-74
2022/07/08 04:41:05;;;;;;;5.22;1.10;;;13.00;99.90;;;;;;4987858;28;20054;-74
2022/07/08 04:43:31;;;;;;;11.05;1.70;;;13.00;99.90;;;;;;4988095;28;20439;-75
2022/07/08 04:46:06;;;;;;;6.53;1.38;;;13.10;99.90;;;;;;4989199;28;20022;-74
2022/07/08 04:48:32;;;;;;;7.95;1.42;;;13.10;99.90;;;;;;4985097;28;20061;-74
2022/07/08 04:50:58;;;;;;;8.93;2.38;;;13.20;99.90;;;;;;4989236;28;20078;-75
2022/07/08 04:53:24;;;;;;;10.65;1.95;;;13.20;99.90;;;;;;4988089;28;20489;-75
2022/07/08 04:55:49;;;;;;;10.48;1.65;;;13.30;99.90;;;;;;4988760;28;20030;-74
2022/07/08 04:58:15;;;;;;;8.40;1.67;;;13.40;99.90;;;;;;4988337;28;20045;-75
2022/07/08 05:00:41;;;;;;;6.28;1.38;;;13.60;99.90;;;;;;4989136;28;20026;-75
2022/07/08 05:03:06;;;;;;;9.35;1.63;;;13.80;99.90;;;;;;4985822;28;20373;-75
2022/07/08 05:05:33;;;;;;;6.43;1.63;;;14.20;99.90;;;;;;4986883;28;20022;-74
2022/07/08 05:07:59;;;;;;;9.50;1.48;;;14.60;99.90;;;;;;4987836;28;20121;-75
2022/07/08 05:10:25;;;;;;;9.43;1.58;;;15.00;99.90;;;;;;4987644;28;20031;-74
2022/07/08 05:12:51;;;;;;;4.47;1.33;;;15.40;99.90;;;;;;4988584;28;20038;-75
2022/07/08 05:15:18;;;;;;;10.75;1.45;;;15.70;99.90;;;;;;4988664;28;21818;-74
2022/07/08 05:17:43;;;;;;;9.98;1.50;;;16.00;99.90;;;;;;4986284;28;20030;-74
2022/07/08 05:20:10;;;;;;;13.95;1.70;;;16.20;99.90;;;;;;4989402;28;20081;-75
2022/07/08 05:22:37;;;;;;;4.60;1.00;;;16.50;99.90;;;;;;4983927;28;20026;-74
2022/07/08 05:25:03;;;;;;;7.40;1.63;;;16.70;99.90;;;;;;4985168;28;20356;-73
2022/07/08 05:27:29;;;;;;;5.93;1.45;;;17.00;99.90;;;;;;4985613;28;20031;-73
2022/07/08 05:29:55;;;;;;;7.03;1.23;;;17.20;99.90;;;;;;4989086;28;20029;-74
2022/07/08 05:32:21;;;;;;;7.38;1.27;;;17.50;99.90;;;;;;4984787;28;20066;-74
2022/07/08 05:34:47;;;;;;;7.25;1.20;;;17.60;99.90;;;;;;4987982;28;20120;-73
2022/07/08 05:37:12;;;;;;;7.13;1.40;;;17.90;99.90;;;;;;4987590;28;20034;-74
2022/07/08 05:39:42;;;;;;;5.35;1.00;;;18.10;99.90;;;;;;4986036;28;20033;-73
2022/07/08 05:42:10;;;;;;;8.50;0.85;;;18.20;99.90;;;;;;4985691;28;20097;-75
2022/07/08 05:44:36;;;;;;;10.25;0.90;;;18.30;99.90;;;;;;4986636;28;20027;-75
2022/07/08 05:47:02;;;;;;;5.13;0.80;;;18.50;99.90;;;;;;4984386;28;20038;-75
2022/07/08 05:49:28;;;;;;;7.20;0.68;;;18.70;99.90;;;;;;4986151;28;20031;-75
2022/07/08 05:51:54;;;;;;;10.60;0.90;;;18.70;99.90;;;;;;4985737;28;20050;-74
2022/07/08 05:54:20;;;;;;;6.28;0.65;;;18.60;99.90;;;;;;4986395;28;20423;-74
2022/07/08 05:56:46;;;;;;;7.05;1.23;;;18.50;99.90;;;;;;4987870;28;20041;-75
2022/07/08 05:59:11;;;;;;;5.60;0.98;;;18.40;99.90;;;;;;4986400;28;20089;-74
2022/07/08 06:01:37;;;;;;;10.02;1.42;;;18.40;99.90;;;;;;4987914;28;20033;-74
2022/07/08 06:04:02;;;;;;;5.70;0.82;;;18.40;99.90;;;;;;4983795;28;20052;-75
2022/07/08 06:06:28;;;;;;;7.00;0.90;;;18.40;99.90;;;;;;4988357;28;20034;-72
2022/07/08 06:08:53;;;;;;;4.30;1.00;;;18.30;99.90;;;;;;4984564;28;20418;-75
2022/07/08 06:11:19;;;;;;;9.23;1.65;;;18.30;99.90;;;;;;4986863;28;20054;-74
2022/07/08 06:13:44;;;;;;;4.93;0.75;;;18.30;99.90;;;;;;4987794;28;20394;-74
2022/07/08 06:16:11;;;;;;;22.38;1.52;;;18.30;99.90;;;;;;4989047;28;20018;-74
2022/07/08 06:18:36;;;;;;;17.85;1.38;;;18.30;99.90;;;;;;4987842;28;20392;-75
2022/07/08 06:21:02;;;;;;;8.45;0.90;;;18.30;99.90;;;;;;4986932;28;20089;-75
2022/07/08 06:23:28;;;;;;;8.32;1.15;;;18.30;99.90;;;;;;4987996;28;20114;-76
2022/07/08 06:25:54;;;;;;;8.65;0.77;;;18.20;99.90;;;;;;4985059;28;20026;-74
2022/07/08 06:28:19;;;;;;;9.15;0.70;;;18.10;99.90;;;;;;4978483;28;20026;-73
2022/07/08 06:30:45;;;;;;;11.25;1.52;;;18.10;99.90;;;;;;4985812;28;20025;-73
2022/07/08 06:33:10;;;;;;;8.07;0.90;;;17.90;99.90;;;;;;4986643;28;20056;-73
2022/07/08 06:35:36;;;;;;;19.83;1.52;;;17.90;99.90;;;;;;4987019;28;20088;-73
2022/07/08 06:38:02;;;;;;;10.25;1.05;;;18.00;99.90;;;;;;4985111;28;20054;-74
2022/07/08 06:40:28;;;;;;;10.93;0.90;;;18.10;99.90;;;;;;4979131;28;20117;-74
2022/07/08 06:42:53;;;;;;;5.53;0.47;;;18.20;99.90;;;;;;4985358;28;20042;-75
2022/07/08 06:45:19;;;;;;;6.20;0.40;;;18.30;99.90;;;;;;4983730;28;20019;-75
2022/07/08 06:47:45;;;;;;;5.20;0.50;;;18.50;99.90;;;;;;4984301;28;20058;-74
2022/07/08 06:50:11;;;;;;;23.10;1.98;;;18.50;99.90;;;;;;4978807;28;20048;-74
2022/07/08 06:52:37;;;;;;;11.15;0.60;;;18.60;99.90;;;;;;4985852;28;20514;-74
2022/07/08 06:55:03;;;;;;;5.75;0.43;;;18.60;99.90;;;;;;4991926;28;20054;-74
2022/07/08 06:57:29;;;;;;;7.95;0.45;;;18.60;99.90;;;;;;4987946;28;20077;-74
2022/07/08 06:59:55;;;;;;;7.97;0.93;;;18.60;99.90;;;;;;4981959;28;20043;-74
2022/07/08 07:02:21;;;;;;;6.13;0.65;;;18.50;99.90;;;;;;4997717;28;20066;-74
2022/07/08 07:04:47;;;;;;;8.07;0.98;;;18.50;99.90;;;;;;4991442;28;20386;-75
2022/07/08 07:07:12;;;;;;;6.00;0.90;;;18.70;99.90;;;;;;4991249;28;20432;-75
2022/07/08 07:09:41;;;;;;;11.18;0.70;;;18.80;99.90;;;;;;4991164;28;20055;-74
2022/07/08 07:12:07;;;;;;;4.38;0.50;;;18.90;99.90;;;;;;4990813;28;20089;-76
2022/07/08 07:14:34;;;;;;;5.90;0.77;;;18.90;99.90;;;;;;4991964;28;20027;-73
2022/07/08 07:16:59;;;;;;;7.20;0.75;;;18.90;99.90;;;;;;4991599;28;20379;-73
2022/07/08 07:19:26;;;;;;;9.15;1.30;;;18.90;99.90;;;;;;4990636;28;20023;-73
2022/07/08 07:21:52;;;;;;;8.10;0.40;;;18.90;99.90;;;;;;4989888;28;20173;-73
2022/07/08 07:24:17;;;;;;;7.32;0.50;;;19.00;99.90;;;;;;4987995;28;20030;-73
2022/07/08 07:26:43;;;;;;;8.85;0.50;;;19.20;99.90;;;;;;4992201;28;20169;-74
2022/07/08 07:29:09;;;;;;;7.63;0.55;;;19.00;99.90;;;;;;4989334;28;20375;-74
2022/07/08 07:31:34;;;;;;;5.90;0.52;;;18.80;99.90;;;;;;4991799;28;20171;-73
2022/07/08 07:34:00;;;;;;;4.63;0.40;;;18.80;99.90;;;;;;4991843;28;20030;-73
2022/07/08 07:36:27;;;;;;;7.25;0.52;;;18.90;99.90;;;;;;4991264;28;20033;-73
2022/07/08 07:38:52;;;;;;;6.65;0.50;;;18.90;99.90;;;;;;4990977;28;20029;-73
2022/07/08 07:41:18;;;;;;;4.97;0.93;;;18.80;99.90;;;;;;4989695;28;20034;-74
2022/07/08 07:43:44;;;;;;;8.82;0.70;;;18.80;99.90;;;;;;4990973;28;20137;-74
2022/07/08 07:46:09;;;;;;;4.82;0.40;;;18.80;99.90;;;;;;4991237;28;20026;-75
2022/07/08 07:48:35;;;;;;;10.82;0.60;;;18.90;99.90;;;;;;4990991;28;20035;-75
2022/07/08 07:51:01;;;;;;;5.88;0.57;;;19.00;99.90;;;;;;4995012;28;20046;-75
2022/07/08 07:53:27;;;;;;;5.97;0.73;;;19.20;99.90;;;;;;4995096;28;20410;-75
2022/07/08 07:55:53;;;;;;;13.52;0.60;;;19.40;99.90;;;;;;4993984;28;20018;-75
2022/07/08 07:58:19;;;;;;;7.78;0.60;;;19.50;99.90;;;;;;4993242;28;20114;-75
2022/07/08 08:00:45;;;;;;;9.95;1.52;;;19.60;99.90;;;;;;4989410;28;20105;-75
2022/07/08 08:03:11;;;;;;;6.47;0.40;;;19.60;99.70;;;;;;4994357;28;20387;-74
2022/07/08 08:05:38;;;;;;;5.75;0.40;;;19.50;99.60;;;;;;4994981;28;20034;-75
2022/07/08 08:08:04;;;;;;;8.75;0.60;;;19.40;99.60;;;;;;4992605;28;20026;-74
2022/07/08 08:10:30;;;;;;;4.63;0.30;;;19.30;99.80;;;;;;4990995;28;20028;-75
2022/07/08 08:12:55;;;;;;;7.45;0.50;;;19.40;99.70;;;;;;4992071;28;20038;-75
2022/07/08 08:15:22;;;;;;;6.35;0.40;;;19.50;99.40;;;;;;4994315;28;20509;-75
2022/07/08 08:17:48;;;;;;;7.40;0.50;;;19.50;99.30;;;;;;4994986;28;20044;-75
2022/07/08 08:20:13;;;;;;;6.90;0.60;;;19.60;99.20;;;;;;4993495;28;20030;-74
2022/07/08 08:22:39;;;;;;;6.25;0.68;;;19.70;99.10;;;;;;4994176;28;20438;-74
2022/07/08 08:25:05;;;;;;;6.63;0.70;;;19.70;98.90;;;;;;4984694;28;20025;-74
2022/07/08 08:27:31;;;;;;;6.82;0.90;;;19.80;99.00;;;;;;4984988;28;20030;-73
2022/07/08 08:29:56;;;;;;;7.00;0.55;;;19.90;99.00;;;;;;4992147;28;20494;-74
2022/07/08 08:32:22;;;;;;;5.85;0.50;;;19.90;98.60;;;;;;4992361;28;20494;-74
2022/07/08 08:34:48;;;;;;;4.53;0.40;;;19.90;98.50;;;;;;4993014;28;20043;-74
2022/07/08 08:37:14;;;;;;;7.97;0.55;;;20.00;98.00;;;;;;4993337;28;20045;-74
2022/07/08 08:39:40;;;;;;;5.00;0.57;;;20.10;97.80;;;;;;4993520;28;20069;-74
2022/07/08 08:42:07;;;;;;;5.63;0.50;;;20.20;97.50;;;;;;4991779;28;20038;-74
2022/07/08 08:44:33;;;;;;;5.15;0.50;;;20.40;97.20;;;;;;4993577;28;20045;-74
2022/07/08 08:47:02;;;;;;;4.03;0.50;;;20.60;97.50;;;;;;4992456;28;20023;-74
2022/07/08 08:49:33;;;;;;;6.32;0.45;;;20.90;97.40;;;;;;4993871;28;20040;-74
2022/07/08 08:52:00;;;;;;;6.30;0.73;;;21.10;96.60;;;;;;4991309;28;20034;-74
2022/07/08 08:54:25;;;;;;;4.80;0.50;;;21.10;96.20;;;;;;4991308;28;20033;-74
2022/07/08 08:56:52;;;;;;;6.32;0.45;;;21.20;95.90;;;;;;4991880;28;20030;-74
2022/07/08 08:59:18;;;;;;;5.07;0.40;;;21.40;95.30;;;;;;4992745;28;20065;-74
2022/07/08 09:01:44;;;;;;;4.43;0.50;;;21.60;95.10;;;;;;4990359;28;20489;-74
2022/07/08 09:04:12;;;;;;;5.28;0.47;;;21.70;94.50;;;;;;4987603;28;20033;-74
2022/07/08 09:06:39;;;;;;;4.82;0.50;;;21.70;94.40;;;;;;4990778;28;20034;-74
2022/07/08 09:09:05;;;;;;;23.88;0.90;;;21.80;94.30;;;;;;4987290;28;20035;-74
2022/07/08 09:11:32;;;;;;;5.85;0.50;;;21.90;94.10;;;;;;4992658;28;20030;-74
2022/07/08 09:14:16;;;;;;;4.85;0.50;;;22.00;93.90;;;;;;4993471;28;20061;-74
2022/07/08 09:17:16;;;;;;;2.38;0.57;;;22.00;93.70;;;;;;4983818;28;20033;-75
2022/07/08 09:19:51;;;;;;;5.00;0.60;;;22.10;94.40;;;;;;4995740;28;20030;-75
2022/07/08 09:22:20;;;;;;;7.03;0.70;;;22.30;94.00;;;;;;4984548;28;20133;-74
2022/07/08 09:24:46;;;;;;;4.40;0.57;;;22.20;93.80;;;;;;4989741;28;20054;-74
2022/07/08 09:27:12;;;;;;;6.53;0.57;;;22.10;93.60;;;;;;4982854;28;20173;-74
2022/07/08 09:29:54;;;;;;;4.80;0.60;;;22.10;93.60;;;;;;4979727;28;20376;-74
2022/07/08 09:32:20;;;;;;;6.60;0.55;;;22.20;93.40;;;;;;4984641;28;20039;-73
2022/07/08 09:34:46;;;;;;;3.60;0.40;;;22.20;93.50;;;;;;4980114;28;20029;-73
2022/07/08 09:37:16;;;;;;;3.88;0.50;;;22.40;93.10;;;;;;4982594;28;20161;-74
2022/07/08 09:39:43;;;;;;;3.03;0.40;;;22.50;92.60;;;;;;4979419;28;20518;-75
2022/07/08 09:42:09;;;;;;;3.92;0.30;;;22.50;92.30;;;;;;4982590;28;20077;-74
2022/07/08 09:44:36;;;;;;;4.22;0.60;;;22.40;92.20;;;;;;4980191;28;20441;-74
2022/07/08 09:47:13;;;;;;;6.25;0.60;;;22.50;92.10;;;;;;4984090;28;20034;-74
2022/07/08 09:49:45;;;;;;;6.43;0.63;;;22.60;92.30;;;;;;4985222;28;20571;-74
2022/07/08 09:52:11;;;;;;;6.63;0.50;;;22.60;92.10;;;;;;4983584;28;20089;-74
2022/07/08 09:54:37;;;;;;;5.78;0.50;;;22.50;92.30;;;;;;4988729;28;20404;-74
2022/07/08 09:57:04;;;;;;;5.60;0.50;;;22.50;92.50;;;;;;4983176;28;20023;-75
2022/07/08 09:59:31;;;;;;;4.00;0.52;;;22.60;92.50;;;;;;4979464;28;22540;-74
2022/07/08 10:01:58;;;;;;;2.80;0.47;;;22.70;92.40;;;;;;4978693;28;20049;-75
2022/07/08 10:04:24;;;;;;;7.28;0.55;;;22.80;92.40;;;;;;4979562;28;20038;-75
2022/07/08 10:06:50;;;;;;;3.25;0.40;;;22.90;92.10;;;;;;4983920;28;20022;-74
2022/07/08 10:09:16;;;;;;;3.15;0.50;;;23.00;92.00;;;;;;4984267;28;20096;-76
2022/07/08 10:11:43;;;;;;;6.40;0.98;;;23.00;91.70;;;;;;4986281;28;20664;-77
2022/07/08 10:14:09;;;;;;;3.33;0.40;;;23.10;91.30;;;;;;4986957;28;20137;-75
2022/07/08 10:16:36;;;;;;;4.57;0.52;;;23.30;91.10;;;;;;4987151;28;20113;-75
2022/07/08 10:19:05;;;;;;;4.30;0.50;;;23.40;91.10;;;;;;4985954;28;20033;-73
2022/07/08 10:21:32;;;;;;;5.85;0.77;;;23.60;90.50;;;;;;4990712;28;20516;-73
2022/07/08 10:23:58;;;;;;;3.88;0.60;;;23.80;90.50;;;;;;4982453;28;20483;-74
2022/07/08 10:26:31;;;;;;;18.52;1.75;;;23.90;90.00;;;;;;4982157;28;20057;-74
2022/07/08 10:29:03;;;;;;;1.65;0.28;;;23.90;89.40;;;;;;4984716;28;20027;-74
2022/07/08 10:31:29;;;;;;;5.55;1.17;;;23.90;88.40;;;;;;4993022;28;20502;-74
2022/07/08 10:34:01;;;;;;;3.13;0.45;;;24.10;88.00;;;;;;4983877;28;20486;-74
2022/07/08 10:36:27;;;;;;;;;;;24.10;88.00;;;;;;4991092;28;20507;-74
2022/07/08 10:38:54;;;;;;;4.30;1.02;;;24.30;88.00;;;;;;4990933;28;19953;-75
2022/07/08 10:41:26;;;;;;;5.95;0.60;;;24.20;87.80;;;;;;4990593;28;20030;-76
2022/07/08 10:43:53;;;;;;;5.90;0.70;;;24.30;87.00;;;;;;4985167;28;20038;-74
2022/07/08 10:46:20;;;;;;;5.68;0.60;;;24.40;86.80;;;;;;4990361;28;20023;-75
2022/07/08 10:48:47;;;;;;;5.65;0.70;;;24.40;86.40;;;;;;4989079;28;20022;-74
2022/07/08 10:51:25;;;;;;;4.75;0.68;;;24.50;86.40;;;;;;4991985;28;20039;-75
2022/07/08 10:53:55;;;;;;;3.42;0.57;;;24.60;85.40;;;;;;4988910;28;20042;-74
2022/07/08 10:56:47;;;;;;;1.65;0.32;;;24.90;85.30;;;;;;4983481;28;20557;-74
2022/07/08 10:59:23;;;;;;;3.67;0.50;;;25.00;84.00;;;;;;4983129;28;20019;-74
2022/07/08 11:02:08;;;;;;;2.70;0.40;;;25.00;84.70;;;;;;4982882;28;20561;-75
2022/07/08 11:04:33;;;;;;;3.88;0.50;;;25.10;84.10;;;;;;4988315;28;20077;-75
2022/07/08 11:07:25;;;;;;;2.78;0.50;;;24.90;83.30;;;;;;4990310;28;20054;-75
2022/07/08 11:10:03;;;;;;;;;;;24.50;83.90;;;;;;4991624;28;20026;-74
2022/07/08 11:12:35;;;;;;;3.28;0.45;;;24.30;85.20;;;;;;4990263;28;19921;-75
2022/07/08 11:15:04;;;;;;;3.10;0.50;;;24.30;85.60;;;;;;4988139;28;20032;-75
2022/07/08 11:17:33;;;;;;;5.45;0.68;;;24.40;85.70;;;;;;4989320;28;20104;-74
2022/07/08 11:20:00;;;;;;;5.93;0.57;;;24.40;85.00;;;;;;4988566;28;20018;-74
2022/07/08 11:22:27;;;;;;;4.55;0.60;;;24.40;85.60;;;;;;4987504;28;20096;-75
2022/07/08 11:24:57;;;;;;;8.27;0.90;;;24.50;85.20;;;;;;4985310;28;20041;-75
2022/07/08 11:27:33;;;;;;;6.13;0.70;;;24.50;84.80;;;;;;4984544;28;20026;-75
2022/07/08 11:30:00;;;;;;;5.57;0.60;;;24.50;85.10;;;;;;4988778;28;20116;-76
2022/07/08 11:32:27;;;;;;;3.67;0.60;;;24.50;84.50;;;;;;4985604;28;20042;-76
2022/07/08 11:34:54;;;;;;;4.70;0.70;;;24.50;84.50;;;;;;4987282;28;20034;-75
2022/07/08 11:37:21;;;;;;;4.07;0.73;;;24.70;85.10;;;;;;4985851;28;21100;-75
2022/07/08 11:39:47;;;;;;;5.38;0.63;;;25.00;84.80;;;;;;4987278;28;20033;-75
2022/07/08 11:42:14;;;;;;;5.30;0.80;;;25.30;83.50;;;;;;4987380;28;20027;-75
2022/07/08 11:44:41;;;;;;;5.57;0.60;;;25.50;82.80;;;;;;4979542;28;20378;-75
2022/07/08 11:47:07;;;;;;;4.88;0.70;;;25.50;82.40;;;;;;4985282;28;20482;-75
2022/07/08 11:49:39;;;;;;;6.65;0.68;;;25.40;82.20;;;;;;4989739;28;20065;-73
2022/07/08 11:52:05;;;;;;;5.78;0.63;;;25.30;82.20;;;;;;4987813;28;20053;-75
2022/07/08 11:54:30;;;;;;;4.38;0.88;;;25.20;82.40;;;;;;4984401;28;20030;-75
2022/07/08 11:56:59;;;;;;;5.50;0.70;;;25.10;83.20;;;;;;4983552;28;20037;-75
2022/07/08 11:59:29;;;;;;;3.97;0.47;;;25.10;83.00;;;;;;4987963;28;20035;-75
2022/07/08 12:01:57;;;;;;;6.15;0.88;;;25.10;82.90;;;;;;4983920;28;20554;-75
2022/07/08 12:04:24;;;;;;;3.95;0.60;;;24.90;82.60;;;;;;4986032;28;20034;-75
2022/07/08 12:07:25;;;;;;;4.93;0.60;;;24.70;83.30;;;;;;4989239;28;20026;-75
2022/07/08 12:10:04;;;;;;;3.87;0.73;;;24.90;84.20;;;;;;4989875;28;20085;-75
2022/07/08 12:12:32;;;;;;;5.00;1.00;;;25.10;83.60;;;;;;4988135;28;20344;-74
2022/07/08 12:15:12;;;;;;;4.10;0.60;;;25.20;83.20;;;;;;4988065;28;20039;-75
2022/07/08 12:17:42;;;;;;;4.25;0.80;;;25.30;82.90;;;;;;4989620;28;20117;-75
2022/07/08 12:20:08;;;;;;;4.43;0.63;;;25.20;83.20;;;;;;4989827;28;20026;-74
2022/07/08 12:22:48;;;;;;;4.75;0.77;;;25.30;83.20;;;;;;4990040;28;20030;-74
2022/07/08 12:25:19;;;;;;;4.68;0.70;;;25.20;83.00;;;;;;4989086;28;20022;-74
2022/07/08 12:27:55;;;;;;;3.58;0.57;;;25.30;84.00;;;;;;4991535;28;20030;-73
2022/07/08 12:30:29;;;;;;;5.03;0.70;;;25.50;84.20;;;;;;4986199;28;20031;-74
2022/07/08 12:33:02;;;;;;;3.05;0.47;;;25.90;82.70;;;;;;4990606;28;20038;-73
2022/07/08 12:35:34;;;;;;;3.35;0.55;;;26.20;82.20;;;;;;4991731;28;20545;-73
2022/07/08 12:38:07;;;;;;;2.58;0.40;;;26.40;81.80;;;;;;4994074;28;20088;-74
2022/07/08 12:40:42;;;;;;;6.57;0.85;;;26.50;80.50;;;;;;4994139;28;20084;-74
2022/07/08 12:43:10;;;;;;;4.82;0.50;;;26.40;80.20;;;;;;4989964;28;20426;-74
2022/07/08 12:45:36;;;;;;;3.33;0.50;;;26.30;80.00;;;;;;4988818;28;20029;-73